sensor_id;sensor_type;location;lat;lon;timestamp;temperature;humidity
37642;DHT22;23486;51.956;5.888;2024-02-14T00:02:11;8.20;99.90
37642;DHT22;23486;51.956;5.888;2024-02-14T00:04:37;8.20;99.90
37642;DHT22;23486;51.956;5.888;2024-02-14T00:07:03;8.10;99.90
37642;DHT22;23486;51.956;5.888;2024-02-14T00:09:29;8.20;99.90
37642;DHT22;23486;51.956;5.888;2024-02-14T00:11:54;8.20;99.90
37642;DHT22;23486;51.956;5.888;2024-02-14T00:14:20;8.20;99.90
37642;DHT22;23486;51.956;5.888;2024-02-14T00:16:46;8.20;99.90
37642;DHT22;23486;51.956;5.888;2024-02-14T00:19:11;8.20;99.90
37642;DHT22;23486;51.956;5.888;2024-02-14T00:21:37;8.20;99.90
37642;DHT22;23486;51.956;5.888;2024-02-14T00:24:03;8.20;99.90
37642;DHT22;23486;51.956;5.888;2024-02-14T00:26:30;8.20;99.90
37642;DHT22;23486;51.956;5.888;2024-02-14T00:28:55;8.20;99.90
37642;DHT22;23486;51.956;5.888;2024-02-14T00:31:21;8.30;99.90
37642;DHT22;23486;51.956;5.888;2024-02-14T00:33:47;8.30;99.90
37642;DHT22;23486;51.956;5.888;2024-02-14T00:36:12;8.30;99.90
37642;DHT22;23486;51.956;5.888;2024-02-14T00:38:38;8.30;99.90
37642;DHT22;23486;51.956;5.888;2024-02-14T00:41:03;8.30;99.90
37642;DHT22;23486;51.956;5.888;2024-02-14T00:43:29;8.30;99.90
37642;DHT22;23486;51.956;5.888;2024-02-14T00:45:54;8.20;99.90
37642;DHT22;23486;51.956;5.888;2024-02-14T00:48:22;8.30;99.90
37642;DHT22;23486;51.956;5.888;2024-02-14T00:50:47;8.30;99.90
37642;DHT22;23486;51.956;5.888;2024-02-14T00:53:13;8.30;99.90
37642;DHT22;23486;51.956;5.888;2024-02-14T00:55:39;8.30;99.90
37642;DHT22;23486;51.956;5.888;2024-02-14T00:58:04;8.30;99.90
37642;DHT22;23486;51.956;5.888;2024-02-14T01:00:30;8.30;99.90
37642;DHT22;23486;51.956;5.888;2024-02-14T01:02:57;8.30;99.90
37642;DHT22;23486;51.956;5.888;2024-02-14T01:05:23;8.30;99.90
37642;DHT22;23486;51.956;5.888;2024-02-14T01:07:48;8.30;99.90
37642;DHT22;23486;51.956;5.888;2024-02-14T01:10:14;8.40;99.90
37642;DHT22;23486;51.956;5.888;2024-02-14T01:12:39;8.30;99.90
37642;DHT22;23486;51.956;5.888;2024-02-14T01:15:05;8.40;99.90
37642;DHT22;23486;51.956;5.888;2024-02-14T01:17:31;8.40;99.90
37642;DHT22;23486;51.956;5.888;2024-02-14T01:19:56;8.50;99.90
37642;DHT22;23486;51.956;5.888;2024-02-14T01:22:23;8.40;99.90
37642;DHT22;23486;51.956;5.888;2024-02-14T01:24:49;8.40;99.90
37642;DHT22;23486;51.956;5.888;2024-02-14T01:27:14;8.50;99.90
37642;DHT22;23486;51.956;5.888;2024-02-14T01:29:41;8.50;99.90
37642;DHT22;23486;51.956;5.888;2024-02-14T01:32:06;8.50;99.90
37642;DHT22;23486;51.956;5.888;2024-02-14T01:34:32;8.50;99.90
37642;DHT22;23486;51.956;5.888;2024-02-14T01:36:57;8.60;99.90
37642;DHT22;23486;51.956;5.888;2024-02-14T01:39:23;8.60;99.90
37642;DHT22;23486;51.956;5.888;2024-02-14T01:41:49;8.60;99.90
37642;DHT22;23486;51.956;5.888;2024-02-14T01:44:15;8.60;99.90
37642;DHT22;23486;51.956;5.888;2024-02-14T01:46:41;8.60;99.90
37642;DHT22;23486;51.956;5.888;2024-02-14T01:49:07;8.70;99.90
37642;DHT22;23486;51.956;5.888;2024-02-14T01:51:32;8.70;99.90
37642;DHT22;23486;51.956;5.888;2024-02-14T01:54:00;8.70;99.90
37642;DHT22;23486;51.956;5.888;2024-02-14T01:56:25;8.70;99.90
37642;DHT22;23486;51.956;5.888;2024-02-14T01:58:52;8.70;99.90
37642;DHT22;23486;51.956;5.888;2024-02-14T02:01:18;8.70;99.90
37642;DHT22;23486;51.956;5.888;2024-02-14T02:03:44;8.80;99.90
37642;DHT22;23486;51.956;5.888;2024-02-14T02:06:09;8.70;99.90
37642;DHT22;23486;51.956;5.888;2024-02-14T02:08:35;8.80;99.90
37642;DHT22;23486;51.956;5.888;2024-02-14T02:11:01;8.90;99.90
37642;DHT22;23486;51.956;5.888;2024-02-14T02:13:26;8.80;99.90
37642;DHT22;23486;51.956;5.888;2024-02-14T02:15:53;8.90;99.90
37642;DHT22;23486;51.956;5.888;2024-02-14T02:18:18;8.90;99.90
37642;DHT22;23486;51.956;5.888;2024-02-14T02:20:45;8.90;99.90
37642;DHT22;23486;51.956;5.888;2024-02-14T02:23:11;8.90;99.90
37642;DHT22;23486;51.956;5.888;2024-02-14T02:25:40;8.90;99.90
37642;DHT22;23486;51.956;5.888;2024-02-14T02:28:05;8.90;99.90
37642;DHT22;23486;51.956;5.888;2024-02-14T02:30:31;8.90;99.90
37642;DHT22;23486;51.956;5.888;2024-02-14T02:32:56;8.90;99.90
37642;DHT22;23486;51.956;5.888;2024-02-14T02:35:23;8.90;99.90
37642;DHT22;23486;51.956;5.888;2024-02-14T02:37:49;8.90;99.90
37642;DHT22;23486;51.956;5.888;2024-02-14T02:40:15;8.90;99.90
37642;DHT22;23486;51.956;5.888;2024-02-14T02:42:42;8.90;99.90
37642;DHT22;23486;51.956;5.888;2024-02-14T02:45:08;8.90;99.90
37642;DHT22;23486;51.956;5.888;2024-02-14T02:47:34;8.90;99.90
37642;DHT22;23486;51.956;5.888;2024-02-14T02:49:59;8.90;99.90
37642;DHT22;23486;51.956;5.888;2024-02-14T02:52:26;8.80;99.90
37642;DHT22;23486;51.956;5.888;2024-02-14T02:54:53;8.90;99.90
37642;DHT22;23486;51.956;5.888;2024-02-14T02:57:19;8.90;99.90
37642;DHT22;23486;51.956;5.888;2024-02-14T02:59:44;8.90;99.90
37642;DHT22;23486;51.956;5.888;2024-02-14T03:02:11;8.90;99.90
37642;DHT22;23486;51.956;5.888;2024-02-14T03:04:37;8.90;99.90
37642;DHT22;23486;51.956;5.888;2024-02-14T03:07:03;8.90;99.90
37642;DHT22;23486;51.956;5.888;2024-02-14T03:09:32;8.90;99.90
37642;DHT22;23486;51.956;5.888;2024-02-14T03:11:57;8.90;99.90
37642;DHT22;23486;51.956;5.888;2024-02-14T03:14:23;8.90;99.90
37642;DHT22;23486;51.956;5.888;2024-02-14T03:16:48;8.90;99.90
37642;DHT22;23486;51.956;5.888;2024-02-14T03:19:14;8.90;99.90
37642;DHT22;23486;51.956;5.888;2024-02-14T03:21:39;8.90;99.90
37642;DHT22;23486;51.956;5.888;2024-02-14T03:24:05;8.90;99.90
37642;DHT22;23486;51.956;5.888;2024-02-14T03:26:31;9.00;99.90
37642;DHT22;23486;51.956;5.888;2024-02-14T03:29:00;9.00;99.90
37642;DHT22;23486;51.956;5.888;2024-02-14T03:31:25;9.00;99.90
37642;DHT22;23486;51.956;5.888;2024-02-14T03:33:51;8.90;99.90
37642;DHT22;23486;51.956;5.888;2024-02-14T03:36:17;9.00;99.90
37642;DHT22;23486;51.956;5.888;2024-02-14T03:38:43;9.00;99.90
37642;DHT22;23486;51.956;5.888;2024-02-14T03:41:09;9.00;99.90
37642;DHT22;23486;51.956;5.888;2024-02-14T03:43:34;9.00;99.90
37642;DHT22;23486;51.956;5.888;2024-02-14T03:46:00;9.00;99.90
37642;DHT22;23486;51.956;5.888;2024-02-14T03:48:25;9.00;99.90
37642;DHT22;23486;51.956;5.888;2024-02-14T03:50:51;9.10;99.90
37642;DHT22;23486;51.956;5.888;2024-02-14T03:53:16;9.10;99.90
37642;DHT22;23486;51.956;5.888;2024-02-14T03:55:42;9.10;99.90
37642;DHT22;23486;51.956;5.888;2024-02-14T03:58:08;9.10;99.90
37642;DHT22;23486;51.956;5.888;2024-02-14T04:00:34;9.20;99.90
37642;DHT22;23486;51.956;5.888;2024-02-14T04:03:00;9.20;99.90
37642;DHT22;23486;51.956;5.888;2024-02-14T04:05:27;9.20;99.90
37642;DHT22;23486;51.956;5.888;2024-02-14T04:07:53;9.20;99.90
37642;DHT22;23486;51.956;5.888;2024-02-14T04:10:19;9.30;99.90
37642;DHT22;23486;51.956;5.888;2024-02-14T04:12:45;9.30;99.90
37642;DHT22;23486;51.956;5.888;2024-02-14T04:15:11;9.30;99.90
37642;DHT22;23486;51.956;5.888;2024-02-14T04:17:36;9.30;99.90
37642;DHT22;23486;51.956;5.888;2024-02-14T04:20:02;9.30;99.90
37642;DHT22;23486;51.956;5.888;2024-02-14T04:22:27;9.30;99.90
37642;DHT22;23486;51.956;5.888;2024-02-14T04:24:56;9.30;99.90
37642;DHT22;23486;51.956;5.888;2024-02-14T04:27:21;9.30;99.90
37642;DHT22;23486;51.956;5.888;2024-02-14T04:29:47;9.30;99.90
37642;DHT22;23486;51.956;5.888;2024-02-14T04:32:13;9.30;99.90
37642;DHT22;23486;51.956;5.888;2024-02-14T04:34:39;9.30;99.90
37642;DHT22;23486;51.956;5.888;2024-02-14T04:37:05;9.30;99.90
37642;DHT22;23486;51.956;5.888;2024-02-14T04:39:35;9.40;99.90
37642;DHT22;23486;51.956;5.888;2024-02-14T04:42:01;9.40;99.90
37642;DHT22;23486;51.956;5.888;2024-02-14T04:44:28;9.40;99.90
37642;DHT22;23486;51.956;5.888;2024-02-14T04:46:53;9.40;99.90
37642;DHT22;23486;51.956;5.888;2024-02-14T04:49:19;9.50;99.90
37642;DHT22;23486;51.956;5.888;2024-02-14T04:51:45;9.40;99.90
37642;DHT22;23486;51.956;5.888;2024-02-14T04:54:10;9.40;99.90
37642;DHT22;23486;51.956;5.888;2024-02-14T04:56:36;9.40;99.90
37642;DHT22;23486;51.956;5.888;2024-02-14T04:59:01;9.40;99.90
37642;DHT22;23486;51.956;5.888;2024-02-14T05:01:28;9.40;99.90
37642;DHT22;23486;51.956;5.888;2024-02-14T05:03:53;9.40;99.90
37642;DHT22;23486;51.956;5.888;2024-02-14T05:06:18;9.40;99.90
37642;DHT22;23486;51.956;5.888;2024-02-14T05:08:44;9.40;99.90
37642;DHT22;23486;51.956;5.888;2024-02-14T05:11:09;9.40;99.90
37642;DHT22;23486;51.956;5.888;2024-02-14T05:13:35;9.40;99.90
37642;DHT22;23486;51.956;5.888;2024-02-14T05:16:02;9.50;99.90
37642;DHT22;23486;51.956;5.888;2024-02-14T05:18:27;9.50;99.90
37642;DHT22;23486;51.956;5.888;2024-02-14T05:20:53;9.50;99.90
37642;DHT22;23486;51.956;5.888;2024-02-14T05:23:18;9.50;99.90
37642;DHT22;23486;51.956;5.888;2024-02-14T05:25:44;9.50;99.90
37642;DHT22;23486;51.956;5.888;2024-02-14T05:28:10;9.50;99.90
37642;DHT22;23486;51.956;5.888;2024-02-14T05:30:39;9.50;99.90
37642;DHT22;23486;51.956;5.888;2024-02-14T05:33:04;9.50;99.90
37642;DHT22;23486;51.956;5.888;2024-02-14T05:35:30;9.50;99.90
37642;DHT22;23486;51.956;5.888;2024-02-14T05:37:55;9.50;99.90
37642;DHT22;23486;51.956;5.888;2024-02-14T05:40:21;9.50;99.90
37642;DHT22;23486;51.956;5.888;2024-02-14T05:42:46;9.50;99.90
37642;DHT22;23486;51.956;5.888;2024-02-14T05:45:12;9.50;99.90
37642;DHT22;23486;51.956;5.888;2024-02-14T05:47:37;9.50;99.90
37642;DHT22;23486;51.956;5.888;2024-02-14T05:50:03;9.50;99.90
37642;DHT22;23486;51.956;5.888;2024-02-14T05:52:29;9.50;99.90
37642;DHT22;23486;51.956;5.888;2024-02-14T05:54:54;9.50;99.90
37642;DHT22;23486;51.956;5.888;2024-02-14T05:57:20;9.50;99.90
37642;DHT22;23486;51.956;5.888;2024-02-14T05:59:45;9.50;99.90
37642;DHT22;23486;51.956;5.888;2024-02-14T06:02:11;9.50;99.90
37642;DHT22;23486;51.956;5.888;2024-02-14T06:04:36;9.50;99.90
37642;DHT22;23486;51.956;5.888;2024-02-14T06:07:01;9.50;99.90
37642;DHT22;23486;51.956;5.888;2024-02-14T06:09:28;9.50;99.90
37642;DHT22;23486;51.956;5.888;2024-02-14T06:11:53;9.50;99.90
37642;DHT22;23486;51.956;5.888;2024-02-14T06:14:19;9.50;99.90
37642;DHT22;23486;51.956;5.888;2024-02-14T06:16:44;9.50;99.90
37642;DHT22;23486;51.956;5.888;2024-02-14T06:19:10;9.60;99.90
37642;DHT22;23486;51.956;5.888;2024-02-14T06:21:36;9.50;99.90
37642;DHT22;23486;51.956;5.888;2024-02-14T06:24:02;9.50;99.90
37642;DHT22;23486;51.956;5.888;2024-02-14T06:26:30;9.60;99.90
37642;DHT22;23486;51.956;5.888;2024-02-14T06:28:55;9.60;99.90
37642;DHT22;23486;51.956;5.888;2024-02-14T06:31:21;9.50;99.90
37642;DHT22;23486;51.956;5.888;2024-02-14T06:33:47;9.60;99.90
37642;DHT22;23486;51.956;5.888;2024-02-14T06:36:13;9.60;99.90
37642;DHT22;23486;51.956;5.888;2024-02-14T06:38:38;9.50;99.90
37642;DHT22;23486;51.956;5.888;2024-02-14T06:41:04;9.60;99.90
37642;DHT22;23486;51.956;5.888;2024-02-14T06:43:29;9.60;99.90
37642;DHT22;23486;51.956;5.888;2024-02-14T06:45:55;9.60;99.90
37642;DHT22;23486;51.956;5.888;2024-02-14T06:48:20;9.60;99.90
37642;DHT22;23486;51.956;5.888;2024-02-14T06:50:49;9.60;99.90
37642;DHT22;23486;51.956;5.888;2024-02-14T06:53:14;9.60;99.90
37642;DHT22;23486;51.956;5.888;2024-02-14T06:55:40;9.60;99.90
37642;DHT22;23486;51.956;5.888;2024-02-14T06:58:05;9.60;99.90
37642;DHT22;23486;51.956;5.888;2024-02-14T07:00:31;9.60;99.90
37642;DHT22;23486;51.956;5.888;2024-02-14T07:02:56;9.60;99.90
37642;DHT22;23486;51.956;5.888;2024-02-14T07:05:22;9.70;99.90
37642;DHT22;23486;51.956;5.888;2024-02-14T07:07:47;9.60;99.90
37642;DHT22;23486;51.956;5.888;2024-02-14T07:10:13;9.70;99.90
37642;DHT22;23486;51.956;5.888;2024-02-14T07:12:38;9.70;99.90
37642;DHT22;23486;51.956;5.888;2024-02-14T07:15:04;9.70;99.90
37642;DHT22;23486;51.956;5.888;2024-02-14T07:17:30;9.70;99.90
37642;DHT22;23486;51.956;5.888;2024-02-14T07:19:56;9.70;99.90
37642;DHT22;23486;51.956;5.888;2024-02-14T07:22:21;9.80;99.90
37642;DHT22;23486;51.956;5.888;2024-02-14T07:24:47;9.80;99.90
37642;DHT22;23486;51.956;5.888;2024-02-14T07:27:13;9.80;99.90
37642;DHT22;23486;51.956;5.888;2024-02-14T07:29:39;9.80;99.90
37642;DHT22;23486;51.956;5.888;2024-02-14T07:32:05;9.80;99.90
37642;DHT22;23486;51.956;5.888;2024-02-14T07:34:31;9.80;99.90
37642;DHT22;23486;51.956;5.888;2024-02-14T07:36:57;9.80;99.90
37642;DHT22;23486;51.956;5.888;2024-02-14T07:39:22;9.90;99.90
37642;DHT22;23486;51.956;5.888;2024-02-14T07:41:48;9.90;99.90
37642;DHT22;23486;51.956;5.888;2024-02-14T07:44:13;9.80;99.90
37642;DHT22;23486;51.956;5.888;2024-02-14T07:46:39;9.90;99.90
37642;DHT22;23486;51.956;5.888;2024-02-14T07:49:04;9.90;99.90
37642;DHT22;23486;51.956;5.888;2024-02-14T07:51:31;9.90;99.90
37642;DHT22;23486;51.956;5.888;2024-02-14T07:54:02;9.90;99.90
37642;DHT22;23486;51.956;5.888;2024-02-14T07:56:28;9.90;99.90
37642;DHT22;23486;51.956;5.888;2024-02-14T07:58:53;10.00;99.90
37642;DHT22;23486;51.956;5.888;2024-02-14T08:01:19;10.00;99.90
37642;DHT22;23486;51.956;5.888;2024-02-14T08:03:45;10.00;99.90
37642;DHT22;23486;51.956;5.888;2024-02-14T08:06:11;10.00;99.90
37642;DHT22;23486;51.956;5.888;2024-02-14T08:08:37;10.00;99.90
37642;DHT22;23486;51.956;5.888;2024-02-14T08:11:05;10.00;99.90
37642;DHT22;23486;51.956;5.888;2024-02-14T08:13:31;10.00;99.90
37642;DHT22;23486;51.956;5.888;2024-02-14T08:15:59;10.00;99.90
37642;DHT22;23486;51.956;5.888;2024-02-14T08:18:25;10.10;99.90
37642;DHT22;23486;51.956;5.888;2024-02-14T08:20:52;10.10;99.90
37642;DHT22;23486;51.956;5.888;2024-02-14T08:23:18;10.10;99.90
37642;DHT22;23486;51.956;5.888;2024-02-14T08:25:45;10.10;99.90
37642;DHT22;23486;51.956;5.888;2024-02-14T08:28:11;10.10;99.90
37642;DHT22;23486;51.956;5.888;2024-02-14T08:30:36;10.10;99.90
37642;DHT22;23486;51.956;5.888;2024-02-14T08:33:03;10.10;99.90
37642;DHT22;23486;51.956;5.888;2024-02-14T08:35:28;10.10;99.90
37642;DHT22;23486;51.956;5.888;2024-02-14T08:37:54;10.10;99.90
37642;DHT22;23486;51.956;5.888;2024-02-14T08:40:22;10.10;99.90
37642;DHT22;23486;51.956;5.888;2024-02-14T08:42:48;10.10;99.90
37642;DHT22;23486;51.956;5.888;2024-02-14T08:45:13;10.10;99.90
37642;DHT22;23486;51.956;5.888;2024-02-14T08:47:39;10.20;99.90
37642;DHT22;23486;51.956;5.888;2024-02-14T08:50:04;10.20;99.90
37642;DHT22;23486;51.956;5.888;2024-02-14T08:52:30;10.20;99.90
37642;DHT22;23486;51.956;5.888;2024-02-14T08:54:55;10.20;99.90
37642;DHT22;23486;51.956;5.888;2024-02-14T08:57:21;10.20;99.90
37642;DHT22;23486;51.956;5.888;2024-02-14T08:59:48;10.20;99.90
37642;DHT22;23486;51.956;5.888;2024-02-14T09:02:13;10.20;99.90
37642;DHT22;23486;51.956;5.888;2024-02-14T09:04:39;10.20;99.90
37642;DHT22;23486;51.956;5.888;2024-02-14T09:07:06;10.30;99.90
37642;DHT22;23486;51.956;5.888;2024-02-14T09:09:32;10.20;99.90
37642;DHT22;23486;51.956;5.888;2024-02-14T09:11:58;10.30;99.90
37642;DHT22;23486;51.956;5.888;2024-02-14T09:14:30;10.30;99.90
37642;DHT22;23486;51.956;5.888;2024-02-14T09:16:57;10.30;99.90
37642;DHT22;23486;51.956;5.888;2024-02-14T09:19:22;10.40;99.90
37642;DHT22;23486;51.956;5.888;2024-02-14T09:21:48;10.40;99.90
37642;DHT22;23486;51.956;5.888;2024-02-14T09:24:13;10.50;99.90
37642;DHT22;23486;51.956;5.888;2024-02-14T09:26:39;10.40;99.90
37642;DHT22;23486;51.956;5.888;2024-02-14T09:29:05;10.40;99.90
37642;DHT22;23486;51.956;5.888;2024-02-14T09:31:30;10.50;99.90
37642;DHT22;23486;51.956;5.888;2024-02-14T09:33:56;10.50;99.90
37642;DHT22;23486;51.956;5.888;2024-02-14T09:36:23;10.50;99.90
37642;DHT22;23486;51.956;5.888;2024-02-14T09:38:49;10.50;99.90
37642;DHT22;23486;51.956;5.888;2024-02-14T09:41:15;10.50;99.90
37642;DHT22;23486;51.956;5.888;2024-02-14T09:43:44;10.50;99.90
37642;DHT22;23486;51.956;5.888;2024-02-14T09:46:13;10.50;99.90
37642;DHT22;23486;51.956;5.888;2024-02-14T09:48:43;10.50;99.90
37642;DHT22;23486;51.956;5.888;2024-02-14T09:51:09;10.50;99.90
37642;DHT22;23486;51.956;5.888;2024-02-14T09:53:34;10.50;99.90
37642;DHT22;23486;51.956;5.888;2024-02-14T09:56:00;10.50;99.90
37642;DHT22;23486;51.956;5.888;2024-02-14T09:58:27;10.50;99.90
37642;DHT22;23486;51.956;5.888;2024-02-14T10:00:59;10.60;99.90
37642;DHT22;23486;51.956;5.888;2024-02-14T10:03:25;10.60;99.90
37642;DHT22;23486;51.956;5.888;2024-02-14T10:05:51;10.60;99.90
37642;DHT22;23486;51.956;5.888;2024-02-14T10:08:18;10.60;99.90
37642;DHT22;23486;51.956;5.888;2024-02-14T10:10:43;10.70;99.90
37642;DHT22;23486;51.956;5.888;2024-02-14T10:13:09;10.80;99.90
37642;DHT22;23486;51.956;5.888;2024-02-14T10:15:35;10.70;99.90
37642;DHT22;23486;51.956;5.888;2024-02-14T10:18:01;10.80;99.90
37642;DHT22;23486;51.956;5.888;2024-02-14T10:20:27;10.80;99.90
37642;DHT22;23486;51.956;5.888;2024-02-14T10:25:18;10.90;99.90
37642;DHT22;23486;51.956;5.888;2024-02-14T10:27:44;10.90;99.90
37642;DHT22;23486;51.956;5.888;2024-02-14T10:30:11;10.90;99.90
37642;DHT22;23486;51.956;5.888;2024-02-14T10:32:39;10.90;99.90
37642;DHT22;23486;51.956;5.888;2024-02-14T10:35:06;11.00;99.90
37642;DHT22;23486;51.956;5.888;2024-02-14T10:37:36;11.00;99.90
37642;DHT22;23486;51.956;5.888;2024-02-14T10:40:02;11.00;99.90
37642;DHT22;23486;51.956;5.888;2024-02-14T10:42:30;11.10;99.90
37642;DHT22;23486;51.956;5.888;2024-02-14T10:44:55;11.10;99.90
37642;DHT22;23486;51.956;5.888;2024-02-14T10:47:21;11.10;99.90
37642;DHT22;23486;51.956;5.888;2024-02-14T10:49:50;11.20;99.90
37642;DHT22;23486;51.956;5.888;2024-02-14T10:52:17;11.20;99.90
37642;DHT22;23486;51.956;5.888;2024-02-14T10:54:43;11.20;99.90
37642;DHT22;23486;51.956;5.888;2024-02-14T10:57:13;11.20;99.90
37642;DHT22;23486;51.956;5.888;2024-02-14T10:59:41;11.20;99.90
37642;DHT22;23486;51.956;5.888;2024-02-14T11:02:08;11.30;99.90
37642;DHT22;23486;51.956;5.888;2024-02-14T11:07:11;11.30;99.90
37642;DHT22;23486;51.956;5.888;2024-02-14T11:09:40;11.30;99.90
37642;DHT22;23486;51.956;5.888;2024-02-14T11:12:26;11.30;99.90
37642;DHT22;23486;51.956;5.888;2024-02-14T11:14:51;11.40;99.90
37642;DHT22;23486;51.956;5.888;2024-02-14T11:17:23;11.40;99.90
37642;DHT22;23486;51.956;5.888;2024-02-14T11:19:51;11.40;99.90
37642;DHT22;23486;51.956;5.888;2024-02-14T11:22:17;11.50;99.90
37642;DHT22;23486;51.956;5.888;2024-02-14T11:24:46;11.50;99.90
37642;DHT22;23486;51.956;5.888;2024-02-14T11:27:12;11.50;99.90
37642;DHT22;23486;51.956;5.888;2024-02-14T11:29:38;11.60;99.90
37642;DHT22;23486;51.956;5.888;2024-02-14T11:32:04;11.60;99.90
37642;DHT22;23486;51.956;5.888;2024-02-14T11:34:33;11.60;99.90
37642;DHT22;23486;51.956;5.888;2024-02-14T11:36:58;11.60;99.90
37642;DHT22;23486;51.956;5.888;2024-02-14T11:39:25;11.60;99.90
37642;DHT22;23486;51.956;5.888;2024-02-14T11:41:50;11.60;99.90
37642;DHT22;23486;51.956;5.888;2024-02-14T11:44:22;11.70;99.90
37642;DHT22;23486;51.956;5.888;2024-02-14T11:47:00;11.70;99.90
37642;DHT22;23486;51.956;5.888;2024-02-14T11:49:26;11.70;99.90
37642;DHT22;23486;51.956;5.888;2024-02-14T11:51:51;11.70;99.90
37642;DHT22;23486;51.956;5.888;2024-02-14T11:54:18;11.70;99.90
37642;DHT22;23486;51.956;5.888;2024-02-14T11:56:57;11.60;99.90
37642;DHT22;23486;51.956;5.888;2024-02-14T11:59:23;11.60;99.90
37642;DHT22;23486;51.956;5.888;2024-02-14T12:01:49;11.60;99.90
37642;DHT22;23486;51.956;5.888;2024-02-14T12:04:16;11.60;99.90
37642;DHT22;23486;51.956;5.888;2024-02-14T12:06:42;11.60;99.90
37642;DHT22;23486;51.956;5.888;2024-02-14T12:09:08;11.70;99.90
37642;DHT22;23486;51.956;5.888;2024-02-14T12:11:38;11.60;99.90
37642;DHT22;23486;51.956;5.888;2024-02-14T12:14:08;11.70;99.90
37642;DHT22;23486;51.956;5.888;2024-02-14T12:16:35;11.70;99.90
37642;DHT22;23486;51.956;5.888;2024-02-14T12:19:08;11.70;99.90
37642;DHT22;23486;51.956;5.888;2024-02-14T12:21:38;11.70;99.90
37642;DHT22;23486;51.956;5.888;2024-02-14T12:24:06;11.70;99.90
37642;DHT22;23486;51.956;5.888;2024-02-14T12:26:32;11.70;99.90
37642;DHT22;23486;51.956;5.888;2024-02-14T12:29:01;11.80;99.90
37642;DHT22;23486;51.956;5.888;2024-02-14T12:31:26;11.70;99.90
37642;DHT22;23486;51.956;5.888;2024-02-14T12:33:52;11.80;99.90
37642;DHT22;23486;51.956;5.888;2024-02-14T12:36:20;11.80;99.90
37642;DHT22;23486;51.956;5.888;2024-02-14T12:38:46;11.80;99.90
37642;DHT22;23486;51.956;5.888;2024-02-14T12:41:11;11.80;99.90
37642;DHT22;23486;51.956;5.888;2024-02-14T12:43:37;11.80;99.90
37642;DHT22;23486;51.956;5.888;2024-02-14T12:46:02;11.80;99.90
37642;DHT22;23486;51.956;5.888;2024-02-14T12:48:29;11.80;99.90
37642;DHT22;23486;51.956;5.888;2024-02-14T12:50:55;11.80;99.90
37642;DHT22;23486;51.956;5.888;2024-02-14T12:53:22;11.80;99.90
37642;DHT22;23486;51.956;5.888;2024-02-14T12:55:48;11.80;99.90
37642;DHT22;23486;51.956;5.888;2024-02-14T12:58:13;11.80;99.90
37642;DHT22;23486;51.956;5.888;2024-02-14T13:00:39;11.80;99.90
37642;DHT22;23486;51.956;5.888;2024-02-14T13:03:04;11.80;99.90
37642;DHT22;23486;51.956;5.888;2024-02-14T13:05:30;11.80;99.90
37642;DHT22;23486;51.956;5.888;2024-02-14T13:07:56;11.80;99.90
37642;DHT22;23486;51.956;5.888;2024-02-14T13:10:22;11.80;99.90
37642;DHT22;23486;51.956;5.888;2024-02-14T13:12:47;11.80;99.90
37642;DHT22;23486;51.956;5.888;2024-02-14T13:15:13;11.80;99.90
37642;DHT22;23486;51.956;5.888;2024-02-14T13:17:38;11.80;99.90
37642;DHT22;23486;51.956;5.888;2024-02-14T13:20:04;11.80;99.90
37642;DHT22;23486;51.956;5.888;2024-02-14T13:22:30;11.80;99.90
37642;DHT22;23486;51.956;5.888;2024-02-14T13:24:55;11.80;99.90
37642;DHT22;23486;51.956;5.888;2024-02-14T13:27:26;11.80;99.90
37642;DHT22;23486;51.956;5.888;2024-02-14T13:29:51;11.80;99.90
37642;DHT22;23486;51.956;5.888;2024-02-14T13:32:17;11.80;99.90
37642;DHT22;23486;51.956;5.888;2024-02-14T13:34:42;11.80;99.90
37642;DHT22;23486;51.956;5.888;2024-02-14T13:37:09;11.80;99.90
37642;DHT22;23486;51.956;5.888;2024-02-14T13:39:34;11.70;99.90
37642;DHT22;23486;51.956;5.888;2024-02-14T13:42:00;11.80;99.90
37642;DHT22;23486;51.956;5.888;2024-02-14T13:44:26;11.70;99.90
37642;DHT22;23486;51.956;5.888;2024-02-14T13:46:52;11.80;99.90
37642;DHT22;23486;51.956;5.888;2024-02-14T13:49:18;11.80;99.90
37642;DHT22;23486;51.956;5.888;2024-02-14T13:51:55;11.80;99.90
37642;DHT22;23486;51.956;5.888;2024-02-14T13:54:21;11.80;99.90
37642;DHT22;23486;51.956;5.888;2024-02-14T13:56:49;11.80;99.90
37642;DHT22;23486;51.956;5.888;2024-02-14T13:59:15;11.80;99.90
37642;DHT22;23486;51.956;5.888;2024-02-14T14:01:41;11.80;99.90
37642;DHT22;23486;51.956;5.888;2024-02-14T14:04:06;11.80;99.90
37642;DHT22;23486;51.956;5.888;2024-02-14T14:06:32;11.70;99.90
37642;DHT22;23486;51.956;5.888;2024-02-14T14:08:58;11.70;99.90
37642;DHT22;23486;51.956;5.888;2024-02-14T14:11:24;11.70;99.90
37642;DHT22;23486;51.956;5.888;2024-02-14T14:13:50;11.70;99.90
37642;DHT22;23486;51.956;5.888;2024-02-14T14:16:15;11.70;99.90
37642;DHT22;23486;51.956;5.888;2024-02-14T14:18:41;11.80;99.90
37642;DHT22;23486;51.956;5.888;2024-02-14T14:21:06;11.70;99.90
37642;DHT22;23486;51.956;5.888;2024-02-14T14:23:32;11.70;99.90
37642;DHT22;23486;51.956;5.888;2024-02-14T14:26:00;11.70;99.90
37642;DHT22;23486;51.956;5.888;2024-02-14T14:28:26;11.70;99.90
37642;DHT22;23486;51.956;5.888;2024-02-14T14:30:53;11.70;99.90
37642;DHT22;23486;51.956;5.888;2024-02-14T14:33:21;11.70;99.90
37642;DHT22;23486;51.956;5.888;2024-02-14T14:35:47;11.70;99.90
37642;DHT22;23486;51.956;5.888;2024-02-14T14:38:15;11.70;99.90
37642;DHT22;23486;51.956;5.888;2024-02-14T14:40:41;11.70;99.90
37642;DHT22;23486;51.956;5.888;2024-02-14T14:43:06;11.80;99.90
37642;DHT22;23486;51.956;5.888;2024-02-14T14:45:35;11.80;99.90
37642;DHT22;23486;51.956;5.888;2024-02-14T14:48:00;11.80;99.90
37642;DHT22;23486;51.956;5.888;2024-02-14T14:50:26;11.80;99.90
37642;DHT22;23486;51.956;5.888;2024-02-14T14:52:51;11.80;99.90
37642;DHT22;23486;51.956;5.888;2024-02-14T14:55:18;11.70;99.90
37642;DHT22;23486;51.956;5.888;2024-02-14T14:57:43;11.80;99.90
37642;DHT22;23486;51.956;5.888;2024-02-14T15:00:12;11.80;99.90
37642;DHT22;23486;51.956;5.888;2024-02-14T15:02:38;11.80;99.90
37642;DHT22;23486;51.956;5.888;2024-02-14T15:05:05;11.80;99.90
37642;DHT22;23486;51.956;5.888;2024-02-14T15:07:31;11.90;99.90
37642;DHT22;23486;51.956;5.888;2024-02-14T15:09:56;11.90;99.90
37642;DHT22;23486;51.956;5.888;2024-02-14T15:12:22;11.90;99.90
37642;DHT22;23486;51.956;5.888;2024-02-14T15:14:52;11.90;99.90
37642;DHT22;23486;51.956;5.888;2024-02-14T15:17:18;11.90;99.90
37642;DHT22;23486;51.956;5.888;2024-02-14T15:19:43;11.90;99.90
37642;DHT22;23486;51.956;5.888;2024-02-14T15:22:09;11.90;99.90
37642;DHT22;23486;51.956;5.888;2024-02-14T15:24:34;12.00;99.90
37642;DHT22;23486;51.956;5.888;2024-02-14T15:27:02;12.00;99.90
37642;DHT22;23486;51.956;5.888;2024-02-14T15:29:28;12.00;99.90
37642;DHT22;23486;51.956;5.888;2024-02-14T15:32:12;12.00;99.90
37642;DHT22;23486;51.956;5.888;2024-02-14T15:34:56;12.00;99.90
37642;DHT22;23486;51.956;5.888;2024-02-14T15:37:22;12.00;99.90